sensor_id;sensor_type;location;lat;lon;timestamp;pressure;altitude;pressure_sealevel;temperature;humidity
36798;BME280;22748;8.426;99.512;2022-11-24T00:00:09;100542.81;;;27.24;72.50
36798;BME280;22748;8.426;99.512;2022-11-24T00:02:41;100539.31;;;27.23;72.46
36798;BME280;22748;8.426;99.512;2022-11-24T00:05:12;100546.34;;;27.24;72.68
36798;BME280;22748;8.426;99.512;2022-11-24T00:07:41;100541.97;;;27.23;72.95
36798;BME280;22748;8.426;99.512;2022-11-24T00:10:12;100541.78;;;27.25;73.11
36798;BME280;22748;8.426;99.512;2022-11-24T00:12:42;100541.78;;;27.25;73.05
36798;BME280;22748;8.426;99.512;2022-11-24T00:15:12;100545.09;;;27.27;73.16
36798;BME280;22748;8.426;99.512;2022-11-24T00:17:44;100551.28;;;27.27;73.02
36798;BME280;22748;8.426;99.512;2022-11-24T00:20:15;100560.38;;;27.26;72.66
36798;BME280;22748;8.426;99.512;2022-11-24T00:22:49;100560.56;;;27.25;72.74
36798;BME280;22748;8.426;99.512;2022-11-24T00:25:20;100564.88;;;27.26;72.77
36798;BME280;22748;8.426;99.512;2022-11-24T00:27:52;100561.38;;;27.25;73.15
36798;BME280;22748;8.426;99.512;2022-11-24T00:30:21;100566.75;;;27.25;72.98
36798;BME280;22748;8.426;99.512;2022-11-24T00:32:55;100579.31;;;27.25;72.67
36798;BME280;22748;8.426;99.512;2022-11-24T00:35:25;100573.78;;;27.26;73.20
36798;BME280;22748;8.426;99.512;2022-11-24T00:37:56;100580.97;;;27.26;72.88
36798;BME280;22748;8.426;99.512;2022-11-24T00:40:26;100577.28;;;27.27;72.66
36798;BME280;22748;8.426;99.512;2022-11-24T00:42:57;100588.81;;;27.27;73.11
36798;BME280;22748;8.426;99.512;2022-11-24T00:45:27;100590.50;;;27.28;73.18
36798;BME280;22748;8.426;99.512;2022-11-24T00:48:00;100577.09;;;27.28;72.93
36798;BME280;22748;8.426;99.512;2022-11-24T00:50:33;100582.44;;;27.28;73.15
36798;BME280;22748;8.426;99.512;2022-11-24T00:53:04;100582.44;;;27.28;72.91
36798;BME280;22748;8.426;99.512;2022-11-24T00:55:34;100593.19;;;27.28;73.08
36798;BME280;22748;8.426;99.512;2022-11-24T00:58:04;100600.19;;;27.29;73.09
36798;BME280;22748;8.426;99.512;2022-11-24T01:00:34;100602.84;;;27.29;73.45
36798;BME280;22748;8.426;99.512;2022-11-24T01:03:06;100609.25;;;27.28;73.09
36798;BME280;22748;8.426;99.512;2022-11-24T01:05:38;100608.22;;;27.29;73.37
36798;BME280;22748;8.426;99.512;2022-11-24T01:08:09;100614.41;;;27.30;73.30
36798;BME280;22748;8.426;99.512;2022-11-24T01:10:41;100620.59;;;27.31;73.39
36798;BME280;22748;8.426;99.512;2022-11-24T01:13:11;100622.25;;;27.32;73.74
36798;BME280;22748;8.426;99.512;2022-11-24T01:15:43;100624.75;;;27.33;74.00
36798;BME280;22748;8.426;99.512;2022-11-24T01:18:15;100640.84;;;27.33;73.55
36798;BME280;22748;8.426;99.512;2022-11-24T01:20:46;100642.66;;;27.33;73.50
36798;BME280;22748;8.426;99.512;2022-11-24T01:23:15;100635.25;;;27.35;73.97
36798;BME280;22748;8.426;99.512;2022-11-24T01:25:45;100638.78;;;27.35;73.85
36798;BME280;22748;8.426;99.512;2022-11-24T01:28:15;100633.63;;;27.34;73.64
36798;BME280;22748;8.426;99.512;2022-11-24T01:30:45;100638.78;;;27.35;74.04
36798;BME280;22748;8.426;99.512;2022-11-24T01:33:16;100640.63;;;27.35;74.17
36798;BME280;22748;8.426;99.512;2022-11-24T01:35:44;100647.03;;;27.34;73.67
36798;BME280;22748;8.426;99.512;2022-11-24T01:38:14;100663.75;;;27.36;74.06
36798;BME280;22748;8.426;99.512;2022-11-24T01:40:45;100668.91;;;27.37;73.99
36798;BME280;22748;8.426;99.512;2022-11-24T01:43:18;100670.56;;;27.38;73.94
36798;BME280;22748;8.426;99.512;2022-11-24T01:45:49;100688.28;;;27.39;74.34
36798;BME280;22748;8.426;99.512;2022-11-24T01:48:25;100693.47;;;27.41;74.44
36798;BME280;22748;8.426;99.512;2022-11-24T01:51:00;100695.13;;;27.42;74.64
36798;BME280;22748;8.426;99.512;2022-11-24T01:53:34;100696.16;;;27.41;75.03
36798;BME280;22748;8.426;99.512;2022-11-24T01:56:05;100700.28;;;27.43;74.55
36798;BME280;22748;8.426;99.512;2022-11-24T01:58:37;100713.50;;;27.45;74.67
36798;BME280;22748;8.426;99.512;2022-11-24T02:01:11;100715.78;;;27.48;74.51
36798;BME280;22748;8.426;99.512;2022-11-24T02:03:44;100721.78;;;27.50;74.43
36798;BME280;22748;8.426;99.512;2022-11-24T02:06:19;100722.41;;;27.52;74.64
36798;BME280;22748;8.426;99.512;2022-11-24T02:08:54;100732.13;;;27.53;74.90
36798;BME280;22748;8.426;99.512;2022-11-24T02:11:29;100728.63;;;27.53;74.47
36798;BME280;22748;8.426;99.512;2022-11-24T02:14:04;100729.81;;;27.50;74.92
36798;BME280;22748;8.426;99.512;2022-11-24T02:16:38;100731.31;;;27.53;74.74
36798;BME280;22748;8.426;99.512;2022-11-24T02:19:20;100730.91;;;27.56;75.00
36798;BME280;22748;8.426;99.512;2022-11-24T02:21:54;100742.09;;;27.59;74.98
36798;BME280;22748;8.426;99.512;2022-11-24T02:24:29;100750.94;;;27.60;74.79
36798;BME280;22748;8.426;99.512;2022-11-24T02:27:03;100744.16;;;27.64;75.15
36798;BME280;22748;8.426;99.512;2022-11-24T02:29:35;100752.63;;;27.67;74.65
36798;BME280;22748;8.426;99.512;2022-11-24T02:32:06;100745.03;;;27.71;74.72
36798;BME280;22748;8.426;99.512;2022-11-24T02:34:37;100749.97;;;27.74;74.48
36798;BME280;22748;8.426;99.512;2022-11-24T02:37:07;100747.94;;;27.76;74.31
36798;BME280;22748;8.426;99.512;2022-11-24T02:39:37;100746.72;;;27.79;74.69
36798;BME280;22748;8.426;99.512;2022-11-24T02:42:10;100744.25;;;27.84;74.65
36798;BME280;22748;8.426;99.512;2022-11-24T02:44:45;100746.38;;;27.88;74.70
36798;BME280;22748;8.426;99.512;2022-11-24T02:47:17;100745.16;;;27.91;74.16
36798;BME280;22748;8.426;99.512;2022-11-24T02:49:46;100743.91;;;27.94;74.04
36798;BME280;22748;8.426;99.512;2022-11-24T02:52:16;100739.41;;;27.94;74.46
36798;BME280;22748;8.426;99.512;2022-11-24T02:54:46;100728.25;;;27.97;74.09
36798;BME280;22748;8.426;99.512;2022-11-24T02:57:17;100730.50;;;28.00;74.53
36798;BME280;22748;8.426;99.512;2022-11-24T02:59:48;100724.75;;;28.03;74.24
36798;BME280;22748;8.426;99.512;2022-11-24T03:02:18;100720.03;;;28.05;73.77
36798;BME280;22748;8.426;99.512;2022-11-24T03:04:47;100724.97;;;28.08;73.59
36798;BME280;22748;8.426;99.512;2022-11-24T03:07:18;100726.66;;;28.09;73.42
36798;BME280;22748;8.426;99.512;2022-11-24T03:09:49;100725.59;;;28.10;73.00
36798;BME280;22748;8.426;99.512;2022-11-24T03:12:21;100732.22;;;28.15;72.73
36798;BME280;22748;8.426;99.512;2022-11-24T03:14:51;100718.00;;;28.21;73.62
36798;BME280;22748;8.426;99.512;2022-11-24T03:17:21;100717.59;;;28.24;72.81
36798;BME280;22748;8.426;99.512;2022-11-24T03:19:51;100717.19;;;28.27;72.86
36798;BME280;22748;8.426;99.512;2022-11-24T03:22:21;100713.47;;;28.28;72.24
36798;BME280;22748;8.426;99.512;2022-11-24T03:24:50;100713.91;;;28.31;72.17
36798;BME280;22748;8.426;99.512;2022-11-24T03:27:23;100713.47;;;28.35;71.84
36798;BME280;22748;8.426;99.512;2022-11-24T03:29:52;100704.00;;;28.39;72.19
36798;BME280;22748;8.426;99.512;2022-11-24T03:32:22;100709.78;;;28.42;71.88
36798;BME280;22748;8.426;99.512;2022-11-24T03:34:53;100711.44;;;28.43;72.00
36798;BME280;22748;8.426;99.512;2022-11-24T03:37:23;100711.44;;;28.43;71.34
36798;BME280;22748;8.426;99.512;2022-11-24T03:39:55;100715.97;;;28.43;71.79
36798;BME280;22748;8.426;99.512;2022-11-24T03:42:37;100715.16;;;28.42;71.54
36798;BME280;22748;8.426;99.512;2022-11-24T03:45:09;100709.38;;;28.45;71.93
36798;BME280;22748;8.426;99.512;2022-11-24T03:47:40;100715.00;;;28.50;71.76
36798;BME280;22748;8.426;99.512;2022-11-24T03:50:12;100720.78;;;28.54;71.96
36798;BME280;22748;8.426;99.512;2022-11-24T03:52:43;100716.47;;;28.60;71.42
36798;BME280;22748;8.426;99.512;2022-11-24T03:55:15;100716.03;;;28.63;71.03
36798;BME280;22748;8.426;99.512;2022-11-24T03:57:49;100716.47;;;28.66;70.71
36798;BME280;22748;8.426;99.512;2022-11-24T04:00:23;100698.91;;;28.70;70.88
36798;BME280;22748;8.426;99.512;2022-11-24T04:02:57;100706.97;;;28.77;70.81
36798;BME280;22748;8.426;99.512;2022-11-24T04:05:29;100699.53;;;28.79;71.34
36798;BME280;22748;8.426;99.512;2022-11-24T04:08:02;100696.59;;;28.87;71.10
36798;BME280;22748;8.426;99.512;2022-11-24T04:10:34;100691.44;;;28.92;71.21
36798;BME280;22748;8.426;99.512;2022-11-24T04:13:12;100694.13;;;28.99;70.48
36798;BME280;22748;8.426;99.512;2022-11-24T04:15:45;100685.44;;;29.04;70.38
36798;BME280;22748;8.426;99.512;2022-11-24T04:18:16;100681.69;;;29.05;70.38
36798;BME280;22748;8.426;99.512;2022-11-24T04:20:49;100679.63;;;29.07;71.19
36798;BME280;22748;8.426;99.512;2022-11-24T04:23:21;100672.22;;;29.09;70.72
36798;BME280;22748;8.426;99.512;2022-11-24T04:25:50;100663.28;;;29.08;70.41
36798;BME280;22748;8.426;99.512;2022-11-24T04:28:21;100661.47;;;29.09;70.05
36798;BME280;22748;8.426;99.512;2022-11-24T04:30:52;100646.19;;;29.09;69.41
36798;BME280;22748;8.426;99.512;2022-11-24T04:33:21;100639.53;;;29.12;69.65
36798;BME280;22748;8.426;99.512;2022-11-24T04:35:53;100630.03;;;29.16;69.39
36798;BME280;22748;8.426;99.512;2022-11-24T04:38:23;100636.63;;;29.20;69.07
36798;BME280;22748;8.426;99.512;2022-11-24T04:40:54;100630.81;;;29.23;69.01
36798;BME280;22748;8.426;99.512;2022-11-24T04:43:25;100632.06;;;29.27;68.96
36798;BME280;22748;8.426;99.512;2022-11-24T04:45:58;100632.66;;;29.29;68.08
36798;BME280;22748;8.426;99.512;2022-11-24T04:48:28;100637.00;;;29.30;67.41
36798;BME280;22748;8.426;99.512;2022-11-24T04:50:57;100632.84;;;29.35;66.60
36798;BME280;22748;8.426;99.512;2022-11-24T04:53:27;100632.44;;;29.38;66.63
36798;BME280;22748;8.426;99.512;2022-11-24T04:55:57;100635.31;;;29.43;66.87
36798;BME280;22748;8.426;99.512;2022-11-24T04:58:30;100623.09;;;29.47;67.02
36798;BME280;22748;8.426;99.512;2022-11-24T05:00:59;100617.47;;;29.55;66.81
36798;BME280;22748;8.426;99.512;2022-11-24T05:03:30;100608.97;;;29.58;66.32
36798;BME280;22748;8.426;99.512;2022-11-24T05:06:00;100605.44;;;29.58;66.83
36798;BME280;22748;8.426;99.512;2022-11-24T05:08:31;100608.34;;;29.56;67.06
36798;BME280;22748;8.426;99.512;2022-11-24T05:11:03;100602.97;;;29.56;66.86
36798;BME280;22748;8.426;99.512;2022-11-24T05:13:36;100594.88;;;29.56;66.72
36798;BME280;22748;8.426;99.512;2022-11-24T05:16:07;100593.44;;;29.60;65.67
36798;BME280;22748;8.426;99.512;2022-11-24T05:18:38;100600.44;;;29.61;65.61
36798;BME280;22748;8.426;99.512;2022-11-24T05:21:09;100587.84;;;29.62;65.40
36798;BME280;22748;8.426;99.512;2022-11-24T05:23:40;100584.50;;;29.66;65.98
36798;BME280;22748;8.426;99.512;2022-11-24T05:26:10;100580.56;;;29.69;64.86
36798;BME280;22748;8.426;99.512;2022-11-24T05:28:42;100568.09;;;29.74;65.12
36798;BME280;22748;8.426;99.512;2022-11-24T05:31:13;100567.84;;;29.83;64.49
36798;BME280;22748;8.426;99.512;2022-11-24T05:33:44;100568.03;;;29.88;64.45
36798;BME280;22748;8.426;99.512;2022-11-24T05:36:13;100569.78;;;29.76;63.49
36798;BME280;22748;8.426;99.512;2022-11-24T05:38:56;100555.25;;;29.77;63.79
36798;BME280;22748;8.426;99.512;2022-11-24T05:41:28;100555.00;;;29.85;63.95
36798;BME280;22748;8.426;99.512;2022-11-24T05:43:59;100561.16;;;29.92;64.32
36798;BME280;22748;8.426;99.512;2022-11-24T05:46:30;100546.41;;;30.01;64.07
36798;BME280;22748;8.426;99.512;2022-11-24T05:49:03;100546.78;;;30.05;64.28
36798;BME280;22748;8.426;99.512;2022-11-24T05:51:34;100525.41;;;30.10;64.28
36798;BME280;22748;8.426;99.512;2022-11-24T05:54:07;100525.63;;;30.08;63.37
36798;BME280;22748;8.426;99.512;2022-11-24T05:56:37;100519.56;;;30.13;62.69
36798;BME280;22748;8.426;99.512;2022-11-24T05:59:09;100517.88;;;30.19;63.08
36798;BME280;22748;8.426;99.512;2022-11-24T06:01:39;100502.94;;;30.23;63.47
36798;BME280;22748;8.426;99.512;2022-11-24T06:04:10;100500.84;;;30.25;62.86
36798;BME280;22748;8.426;99.512;2022-11-24T06:06:40;100497.53;;;30.23;62.72
36798;BME280;22748;8.426;99.512;2022-11-24T06:09:10;100495.22;;;30.26;62.96
36798;BME280;22748;8.426;99.512;2022-11-24T06:11:42;100497.72;;;30.28;63.06
36798;BME280;22748;8.426;99.512;2022-11-24T06:14:14;100501.03;;;30.30;63.35
36798;BME280;22748;8.426;99.512;2022-11-24T06:16:44;100497.28;;;30.31;62.67
36798;BME280;22748;8.426;99.512;2022-11-24T06:19:14;100498.13;;;30.31;62.78
36798;BME280;22748;8.426;99.512;2022-11-24T06:21:47;100490.84;;;30.32;63.17
36798;BME280;22748;8.426;99.512;2022-11-24T06:24:19;100487.69;;;30.35;64.35
36798;BME280;22748;8.426;99.512;2022-11-24T06:26:48;100483.97;;;30.36;64.98
36798;BME280;22748;8.426;99.512;2022-11-24T06:29:20;100471.53;;;30.35;65.92
36798;BME280;22748;8.426;99.512;2022-11-24T06:31:51;100462.44;;;30.36;66.50
36798;BME280;22748;8.426;99.512;2022-11-24T06:34:22;100456.19;;;30.35;66.73
36798;BME280;22748;8.426;99.512;2022-11-24T06:36:50;100457.03;;;30.36;66.38
36798;BME280;22748;8.426;99.512;2022-11-24T06:39:20;100451.41;;;30.38;67.43
36798;BME280;22748;8.426;99.512;2022-11-24T06:41:50;100453.75;;;30.34;67.93
36798;BME280;22748;8.426;99.512;2022-11-24T06:44:23;100448.78;;;30.31;67.92
36798;BME280;22748;8.426;99.512;2022-11-24T06:46:56;100448.00;;;30.24;69.04
36798;BME280;22748;8.426;99.512;2022-11-24T06:49:26;100447.59;;;30.20;69.24
36798;BME280;22748;8.426;99.512;2022-11-24T06:51:56;100441.06;;;30.16;69.18
36798;BME280;22748;8.426;99.512;2022-11-24T06:54:29;100436.09;;;30.13;69.00
36798;BME280;22748;8.426;99.512;2022-11-24T06:56:59;100442.28;;;30.13;69.79
36798;BME280;22748;8.426;99.512;2022-11-24T06:59:31;100432.78;;;30.11;69.60
36798;BME280;22748;8.426;99.512;2022-11-24T07:02:02;100441.94;;;30.10;69.73
36798;BME280;22748;8.426;99.512;2022-11-24T07:04:33;100441.53;;;30.06;70.31
36798;BME280;22748;8.426;99.512;2022-11-24T07:07:03;100439.06;;;30.05;70.32
36798;BME280;22748;8.426;99.512;2022-11-24T07:09:33;100434.53;;;30.05;70.48
36798;BME280;22748;8.426;99.512;2022-11-24T07:12:04;100434.94;;;30.02;70.23
36798;BME280;22748;8.426;99.512;2022-11-24T07:14:36;100426.72;;;29.97;70.30
36798;BME280;22748;8.426;99.512;2022-11-24T07:17:06;100426.13;;;29.95;70.15
36798;BME280;22748;8.426;99.512;2022-11-24T07:19:38;100426.38;;;29.87;70.18
36798;BME280;22748;8.426;99.512;2022-11-24T07:22:09;100427.22;;;29.87;69.89
36798;BME280;22748;8.426;99.512;2022-11-24T07:24:40;100426.84;;;29.84;70.10
36798;BME280;22748;8.426;99.512;2022-11-24T07:27:11;100415.00;;;29.85;70.29
36798;BME280;22748;8.426;99.512;2022-11-24T07:29:43;100407.81;;;29.79;70.32
36798;BME280;22748;8.426;99.512;2022-11-24T07:32:12;100412.38;;;29.78;70.42
36798;BME280;22748;8.426;99.512;2022-11-24T07:34:42;100408.06;;;29.77;70.34
36798;BME280;22748;8.426;99.512;2022-11-24T07:37:13;100413.28;;;29.65;70.58
36798;BME280;22748;8.426;99.512;2022-11-24T07:39:46;100408.50;;;29.67;70.45
36798;BME280;22748;8.426;99.512;2022-11-24T07:42:17;100400.44;;;29.67;70.84
36798;BME280;22748;8.426;99.512;2022-11-24T07:44:55;100401.25;;;29.68;70.28
36798;BME280;22748;8.426;99.512;2022-11-24T07:47:25;100407.47;;;29.68;70.20
36798;BME280;22748;8.426;99.512;2022-11-24T07:49:55;100393.81;;;29.70;70.43
36798;BME280;22748;8.426;99.512;2022-11-24T07:52:29;100402.09;;;29.68;70.73
36798;BME280;22748;8.426;99.512;2022-11-24T07:55:01;100394.69;;;29.64;70.66
36798;BME280;22748;8.426;99.512;2022-11-24T07:57:31;100406.25;;;29.64;70.93
36798;BME280;22748;8.426;99.512;2022-11-24T08:00:06;100400.06;;;29.64;70.47
36798;BME280;22748;8.426;99.512;2022-11-24T08:02:36;100392.81;;;29.64;70.56
36798;BME280;22748;8.426;99.512;2022-11-24T08:05:06;100388.47;;;29.63;70.96
36798;BME280;22748;8.426;99.512;2022-11-24T08:07:36;100381.22;;;29.64;71.13
36798;BME280;22748;8.426;99.512;2022-11-24T08:10:06;100386.63;;;29.64;70.73
36798;BME280;22748;8.426;99.512;2022-11-24T08:12:41;100395.50;;;29.64;70.56
36798;BME280;22748;8.426;99.512;2022-11-24T08:15:15;100392.63;;;29.59;70.92
36798;BME280;22748;8.426;99.512;2022-11-24T08:17:48;100394.13;;;29.55;70.38
36798;BME280;22748;8.426;99.512;2022-11-24T08:20:18;100407.28;;;29.38;70.78
36798;BME280;22748;8.426;99.512;2022-11-24T08:22:48;100407.28;;;29.38;71.05
36798;BME280;22748;8.426;99.512;2022-11-24T08:25:19;100400.25;;;29.37;71.05
36798;BME280;22748;8.426;99.512;2022-11-24T08:27:51;100401.91;;;29.38;70.61
36798;BME280;22748;8.426;99.512;2022-11-24T08:30:26;100402.72;;;29.39;71.02
36798;BME280;22748;8.426;99.512;2022-11-24T08:32:59;100400.66;;;29.41;70.88
36798;BME280;22748;8.426;99.512;2022-11-24T08:35:29;100398.56;;;29.43;70.92
36798;BME280;22748;8.426;99.512;2022-11-24T08:37:58;100401.88;;;29.45;70.69
36798;BME280;22748;8.426;99.512;2022-11-24T08:40:29;100403.50;;;29.46;71.20
36798;BME280;22748;8.426;99.512;2022-11-24T08:42:59;100403.06;;;29.49;70.74
36798;BME280;22748;8.426;99.512;2022-11-24T08:45:32;100408.47;;;29.49;70.91
36798;BME280;22748;8.426;99.512;2022-11-24T08:48:01;100405.38;;;29.45;70.87
36798;BME280;22748;8.426;99.512;2022-11-24T08:50:32;100417.41;;;29.43;70.80
36798;BME280;22748;8.426;99.512;2022-11-24T08:53:03;100420.91;;;29.43;71.05
36798;BME280;22748;8.426;99.512;2022-11-24T08:55:32;100430.41;;;29.46;71.08
36798;BME280;22748;8.426;99.512;2022-11-24T08:58:01;100439.75;;;29.43;71.15
36798;BME280;22748;8.426;99.512;2022-11-24T09:00:33;100435.22;;;29.37;70.82
36798;BME280;22748;8.426;99.512;2022-11-24T09:03:04;100442.69;;;29.35;71.23
36798;BME280;22748;8.426;99.512;2022-11-24T09:05:33;100448.66;;;29.37;70.86
36798;BME280;22748;8.426;99.512;2022-11-24T09:08:04;100446.81;;;29.38;71.11
36798;BME280;22748;8.426;99.512;2022-11-24T09:10:34;100442.03;;;29.40;71.28
36798;BME280;22748;8.426;99.512;2022-11-24T09:13:04;100437.09;;;29.37;71.43
36798;BME280;22748;8.426;99.512;2022-11-24T09:15:37;100443.28;;;29.37;71.26
36798;BME280;22748;8.426;99.512;2022-11-24T09:18:10;100443.28;;;29.37;71.17
36798;BME280;22748;8.426;99.512;2022-11-24T09:20:41;100437.09;;;29.37;71.41
36798;BME280;22748;8.426;99.512;2022-11-24T09:23:11;100441.25;;;29.32;71.49
36798;BME280;22748;8.426;99.512;2022-11-24T09:25:43;100436.47;;;29.35;71.19
36798;BME280;22748;8.426;99.512;2022-11-24T09:28:13;100448.91;;;29.36;71.05
36798;BME280;22748;8.426;99.512;2022-11-24T09:30:45;100441.69;;;29.29;71.27
36798;BME280;22748;8.426;99.512;2022-11-24T09:33:17;100440.44;;;29.32;71.51
36798;BME280;22748;8.426;99.512;2022-11-24T09:35:53;100440.22;;;29.33;71.86
36798;BME280;22748;8.426;99.512;2022-11-24T09:38:25;100438.97;;;29.36;72.10
36798;BME280;22748;8.426;99.512;2022-11-24T09:40:54;100445.16;;;29.37;71.48
36798;BME280;22748;8.426;99.512;2022-11-24T09:43:34;100438.75;;;29.38;72.23
36798;BME280;22748;8.426;99.512;2022-11-24T09:46:17;100441.66;;;29.36;71.54
36798;BME280;22748;8.426;99.512;2022-11-24T09:48:51;100450.53;;;29.37;71.72
36798;BME280;22748;8.426;99.512;2022-11-24T09:51:26;100460.53;;;29.29;72.13
36798;BME280;22748;8.426;99.512;2022-11-24T09:54:00;100464.84;;;29.30;71.78
36798;BME280;22748;8.426;99.512;2022-11-24T09:56:32;100464.66;;;29.32;72.17
36798;BME280;22748;8.426;99.512;2022-11-24T09:59:09;100461.75;;;29.33;71.87
36798;BME280;22748;8.426;99.512;2022-11-24T10:01:47;100467.53;;;29.30;71.82
36798;BME280;22748;8.426;99.512;2022-11-24T10:04:24;100465.66;;;29.31;72.09
36798;BME280;22748;8.426;99.512;2022-11-24T10:07:02;100469.41;;;29.30;71.55
36798;BME280;22748;8.426;99.512;2022-11-24T10:09:53;100465.91;;;29.29;72.18
36798;BME280;22748;8.426;99.512;2022-11-24T10:12:37;100464.84;;;29.30;72.05
36798;BME280;22748;8.426;99.512;2022-11-24T10:15:34;100463.22;;;29.29;71.57
36798;BME280;22748;8.426;99.512;2022-11-24T10:18:30;100466.94;;;29.28;71.98
36798;BME280;22748;8.426;99.512;2022-11-24T10:21:18;100465.09;;;29.29;72.02
36798;BME280;22748;8.426;99.512;2022-11-24T10:24:09;100468.59;;;29.29;71.71
36798;BME280;22748;8.426;99.512;2022-11-24T10:26:50;100473.97;;;29.29;72.02
36798;BME280;22748;8.426;99.512;2022-11-24T10:29:29;100471.28;;;29.29;72.12
36798;BME280;22748;8.426;99.512;2022-11-24T10:32:10;100474.78;;;29.30;71.64
36798;BME280;22748;8.426;99.512;2022-11-24T10:34:44;100483.06;;;29.28;71.46
36798;BME280;22748;8.426;99.512;2022-11-24T10:37:22;100484.13;;;29.27;71.84
36798;BME280;22748;8.426;99.512;2022-11-24T10:39:59;100476.06;;;29.27;71.79
36798;BME280;22748;8.426;99.512;2022-11-24T10:42:33;100479.75;;;29.26;71.83
36798;BME280;22748;8.426;99.512;2022-11-24T10:45:11;100475.66;;;29.24;72.02
36798;BME280;22748;8.426;99.512;2022-11-24T10:47:43;100489.91;;;29.24;72.08
36798;BME280;22748;8.426;99.512;2022-11-24T10:50:23;100487.22;;;29.24;72.19
36798;BME280;22748;8.426;99.512;2022-11-24T10:53:08;100475.84;;;29.22;72.17
36798;BME280;22748;8.426;99.512;2022-11-24T10:55:58;100479.59;;;29.21;72.21
36798;BME280;22748;8.426;99.512;2022-11-24T10:58:31;100482.28;;;29.21;72.07
36798;BME280;22748;8.426;99.512;2022-11-24T11:01:17;100489.31;;;29.22;72.03
36798;BME280;22748;8.426;99.512;2022-11-24T11:03:48;100490.16;;;29.23;72.20
36798;BME280;22748;8.426;99.512;2022-11-24T11:06:24;100486.03;;;29.20;72.15
36798;BME280;22748;8.426;99.512;2022-11-24T11:09:17;100488.94;;;29.19;72.18
36798;BME280;22748;8.426;99.512;2022-11-24T11:11:50;100502.16;;;29.20;72.27
36798;BME280;22748;8.426;99.512;2022-11-24T11:14:30;100513.34;;;29.17;72.31
36798;BME280;22748;8.426;99.512;2022-11-24T11:17:04;100517.06;;;29.16;72.04
36798;BME280;22748;8.426;99.512;2022-11-24T11:19:54;100518.31;;;29.13;72.41
36798;BME280;22748;8.426;99.512;2022-11-24T11:22:36;100509.41;;;29.13;72.61
36798;BME280;22748;8.426;99.512;2022-11-24T11:25:19;100523.69;;;29.13;72.61
36798;BME280;22748;8.426;99.512;2022-11-24T11:27:51;100522.88;;;29.13;72.46
36798;BME280;22748;8.426;99.512;2022-11-24T11:30:54;100522.25;;;29.11;72.43
36798;BME280;22748;8.426;99.512;2022-11-24T11:33:27;100534.66;;;29.12;72.36
36798;BME280;22748;8.426;99.512;2022-11-24T11:36:03;100539.44;;;29.10;72.46
36798;BME280;22748;8.426;99.512;2022-11-24T11:38:47;100540.47;;;29.09;72.57
36798;BME280;22748;8.426;99.512;2022-11-24T11:41:23;100541.47;;;29.08;72.29
36798;BME280;22748;8.426;99.512;2022-11-24T11:44:02;100541.47;;;29.08;72.56
36798;BME280;22748;8.426;99.512;2022-11-24T11:46:33;100553.06;;;29.08;72.54
36798;BME280;22748;8.426;99.512;2022-11-24T11:49:04;100549.53;;;29.08;72.57
36798;BME280;22748;8.426;99.512;2022-11-24T11:54:50;100552.44;;;29.06;72.67
36798;BME280;22748;8.426;99.512;2022-11-24T12:00:52;100549.38;;;29.03;72.68
36798;BME280;22748;8.426;99.512;2022-11-24T12:03:37;100556.38;;;29.04;72.79
36798;BME280;22748;8.426;99.512;2022-11-24T12:06:26;100559.88;;;29.04;72.54
36798;BME280;22748;8.426;99.512;2022-11-24T12:09:19;100552.63;;;29.05;72.81
36798;BME280;22748;8.426;99.512;2022-11-24T12:12:11;100559.69;;;29.06;72.36
36798;BME280;22748;8.426;99.512;2022-11-24T12:14:58;100566.69;;;29.07;72.73
36798;BME280;22748;8.426;99.512;2022-11-24T12:17:33;100572.06;;;29.07;72.41
36798;BME280;22748;8.426;99.512;2022-11-24T12:20:17;100572.06;;;29.07;72.70
36798;BME280;22748;8.426;99.512;2022-11-24T12:23:01;100584.50;;;29.08;72.70
36798;BME280;22748;8.426;99.512;2022-11-24T12:25:41;100585.31;;;29.08;72.56
36798;BME280;22748;8.426;99.512;2022-11-24T12:28:23;100595.25;;;29.08;72.49
36798;BME280;22748;8.426;99.512;2022-11-24T12:31:04;100594.22;;;29.09;72.61
36798;BME280;22748;8.426;99.512;2022-11-24T12:34:01;100604.13;;;29.08;72.60
36798;BME280;22748;8.426;99.512;2022-11-24T12:36:45;100616.75;;;29.08;72.67
36798;BME280;22748;8.426;99.512;2022-11-24T12:39:27;100619.28;;;29.09;72.26
36798;BME280;22748;8.426;99.512;2022-11-24T12:42:07;100617.41;;;29.10;72.45
36798;BME280;22748;8.426;99.512;2022-11-24T12:44:55;100607.69;;;29.09;72.30
36798;BME280;22748;8.426;99.512;2022-11-24T12:47:36;100622.78;;;29.10;72.46
36798;BME280;22748;8.426;99.512;2022-11-24T12:50:13;100616.38;;;29.11;72.04
36798;BME280;22748;8.426;99.512;2022-11-24T12:52:49;100619.06;;;29.11;72.32
36798;BME280;22748;8.426;99.512;2022-11-24T12:55:21;100627.13;;;29.11;72.36
36798;BME280;22748;8.426;99.512;2022-11-24T12:57:57;100632.50;;;29.11;72.18
36798;BME280;22748;8.426;99.512;2022-11-24T13:00:39;100623.59;;;29.10;72.26
36798;BME280;22748;8.426;99.512;2022-11-24T13:03:22;100630.84;;;29.10;71.90
36798;BME280;22748;8.426;99.512;2022-11-24T13:05:58;100629.00;;;29.10;71.94
36798;BME280;22748;8.426;99.512;2022-11-24T13:08:31;100622.59;;;29.11;72.23
36798;BME280;22748;8.426;99.512;2022-11-24T13:14:19;100626.31;;;29.10;72.09
36798;BME280;22748;8.426;99.512;2022-11-24T13:16:57;100627.13;;;29.11;71.91
36798;BME280;22748;8.426;99.512;2022-11-24T13:19:34;100633.34;;;29.11;71.85
36798;BME280;22748;8.426;99.512;2022-11-24T13:22:21;100629.81;;;29.11;72.02
36798;BME280;22748;8.426;99.512;2022-11-24T13:25:15;100633.34;;;29.11;71.92
36798;BME280;22748;8.426;99.512;2022-11-24T13:27:53;100644.91;;;29.12;72.02
36798;BME280;22748;8.426;99.512;2022-11-24T13:33:38;100647.00;;;29.10;71.94
36798;BME280;22748;8.426;99.512;2022-11-24T13:36:30;100667.69;;;29.09;71.52